createdAt,value
2022-12-18T00:02:15.468Z,-0.60
2022-12-18T00:04:42.424Z,-0.60
2022-12-18T00:07:09.339Z,-0.30
2022-12-18T00:09:40.317Z,0.00
2022-12-18T00:14:44.525Z,-0.30
2022-12-18T00:17:11.457Z,-0.30
2022-12-18T00:19:38.389Z,0.00
2022-12-18T00:22:06.091Z,0.00
2022-12-18T00:24:33.039Z,-0.10
2022-12-18T00:27:00.082Z,0.10
2022-12-18T00:29:27.030Z,0.20
2022-12-18T00:31:54.060Z,0.30
2022-12-18T00:34:21.024Z,0.00
2022-12-18T00:36:48.684Z,0.20
2022-12-18T00:39:15.799Z,-0.40
2022-12-18T00:42:04.046Z,0.10
2022-12-18T00:44:32.045Z,0.30
2022-12-18T00:46:59.053Z,0.00
2022-12-18T00:49:26.174Z,-0.10
2022-12-18T00:51:53.101Z,-0.10
2022-12-18T00:54:20.006Z,-0.30
2022-12-18T00:56:50.261Z,-0.30
2022-12-18T00:59:18.484Z,0.00
2022-12-18T01:01:45.824Z,-0.30
2022-12-18T01:04:13.015Z,-0.30
2022-12-18T01:06:39.956Z,-0.30
2022-12-18T01:09:07.432Z,-0.50
2022-12-18T01:11:37.113Z,-0.50
2022-12-18T01:14:04.846Z,-0.70
2022-12-18T01:16:32.092Z,-0.70
2022-12-18T01:18:59.170Z,-0.50
2022-12-18T01:21:27.865Z,-0.60
2022-12-18T01:23:55.637Z,-0.80
2022-12-18T01:26:24.422Z,-0.70
2022-12-18T01:28:51.387Z,-0.80
2022-12-18T01:31:23.505Z,-0.90
2022-12-18T01:33:51.251Z,-0.80
2022-12-18T01:36:22.049Z,-1.00
2022-12-18T01:38:49.162Z,-0.80
2022-12-18T01:41:17.313Z,-0.80
2022-12-18T01:43:55.567Z,-1.00
2022-12-18T01:46:23.663Z,-1.20
2022-12-18T01:48:55.404Z,-1.10
2022-12-18T01:51:22.474Z,-1.20
2022-12-18T01:53:49.491Z,-1.00
2022-12-18T01:56:18.650Z,-0.80
2022-12-18T01:59:05.966Z,-1.20
2022-12-18T02:01:33.913Z,-1.10
2022-12-18T02:04:25.100Z,-1.10
2022-12-18T02:07:14.351Z,-1.10
2022-12-18T02:09:49.766Z,-0.90
2022-12-18T02:12:21.517Z,-0.70
2022-12-18T02:15:00.553Z,-1.00
2022-12-18T02:17:36.377Z,-1.00
2022-12-18T02:20:34.341Z,-0.90
2022-12-18T02:23:26.338Z,-0.40
2022-12-18T02:26:12.807Z,-0.50
2022-12-18T02:28:43.694Z,-0.30
2022-12-18T02:31:14.474Z,0.20
2022-12-18T02:33:41.912Z,0.30
2022-12-18T02:36:09.704Z,-0.20
2022-12-18T02:38:37.711Z,-0.30
2022-12-18T02:41:11.583Z,-0.50
2022-12-18T02:43:39.866Z,-0.70
2022-12-18T02:46:33.723Z,-0.90
2022-12-18T02:49:29.987Z,-1.00
2022-12-18T02:52:11.082Z,-1.10
2022-12-18T02:54:53.526Z,-0.70
2022-12-18T02:57:29.187Z,-1.00
2022-12-18T03:00:19.307Z,-0.70
2022-12-18T03:02:59.908Z,-0.80
2022-12-18T03:05:46.625Z,-0.90
2022-12-18T03:08:15.855Z,-0.80
2022-12-18T03:10:50.725Z,-0.50
2022-12-18T03:13:24.798Z,-0.60
2022-12-18T03:15:53.068Z,-0.40
2022-12-18T03:18:25.200Z,-0.30
2022-12-18T03:20:53.060Z,-0.10
2022-12-18T03:23:27.092Z,0.00
2022-12-18T03:25:55.798Z,0.40
2022-12-18T03:28:24.559Z,0.40
2022-12-18T03:31:00.014Z,0.50
2022-12-18T03:33:51.704Z,0.20
2022-12-18T03:36:19.036Z,0.40
2022-12-18T03:38:45.949Z,0.40
2022-12-18T03:41:32.231Z,0.10
2022-12-18T03:44:39.117Z,0.20
2022-12-18T03:47:20.173Z,0.10
2022-12-18T03:50:12.511Z,-0.10
2022-12-18T03:52:58.343Z,-0.20
2022-12-18T03:55:25.348Z,-0.30
2022-12-18T03:57:58.596Z,-0.30
2022-12-18T04:00:28.972Z,-0.10
2022-12-18T04:03:04.952Z,-0.10
2022-12-18T04:05:39.259Z,-0.20
2022-12-18T04:08:07.427Z,-0.10
2022-12-18T04:10:38.298Z,-0.20
2022-12-18T04:13:05.234Z,-0.20
2022-12-18T04:15:36.002Z,0.00
2022-12-18T04:18:04.552Z,0.10
2022-12-18T04:20:38.600Z,0.00
2022-12-18T04:23:05.716Z,0.10
2022-12-18T04:25:33.288Z,0.00
2022-12-18T04:28:12.147Z,-0.10
2022-12-18T04:30:39.551Z,0.30
2022-12-18T04:33:13.549Z,0.30
2022-12-18T04:35:42.301Z,0.40
2022-12-18T04:38:09.710Z,0.30
2022-12-18T04:40:37.869Z,0.00
2022-12-18T04:43:11.837Z,0.10
2022-12-18T04:45:38.851Z,-0.40
2022-12-18T04:48:07.627Z,0.30
2022-12-18T04:50:34.543Z,0.30
2022-12-18T04:53:01.441Z,0.40
2022-12-18T04:55:28.863Z,0.20
2022-12-18T04:57:55.786Z,0.60
2022-12-18T05:00:23.137Z,0.60
2022-12-18T05:02:50.156Z,0.30
2022-12-18T05:05:17.340Z,0.40
2022-12-18T05:07:44.225Z,0.70
2022-12-18T05:10:11.233Z,0.50
2022-12-18T05:12:59.091Z,0.20
2022-12-18T05:15:30.007Z,0.60
2022-12-18T05:17:59.543Z,0.50
2022-12-18T05:20:27.145Z,0.60
2022-12-18T05:22:55.140Z,0.40
2022-12-18T05:25:22.355Z,0.20
2022-12-18T05:27:49.303Z,0.60
2022-12-18T05:30:16.511Z,0.50
2022-12-18T05:32:43.541Z,0.60
2022-12-18T05:35:11.749Z,0.70
2022-12-18T05:37:42.910Z,0.90
2022-12-18T05:40:10.939Z,1.00
2022-12-18T05:42:37.839Z,1.00
2022-12-18T05:45:05.719Z,0.90
2022-12-18T05:47:32.695Z,0.90
2022-12-18T05:49:59.706Z,0.90
2022-12-18T05:52:26.890Z,0.90
2022-12-18T05:54:53.830Z,0.90
2022-12-18T05:57:21.018Z,1.10
2022-12-18T05:59:47.990Z,1.20
2022-12-18T06:02:15.034Z,1.30
2022-12-18T06:04:42.119Z,1.30
2022-12-18T06:07:09.036Z,1.20
2022-12-18T06:09:36.030Z,1.10
2022-12-18T06:12:03.008Z,1.20
2022-12-18T06:14:29.990Z,1.20
2022-12-18T06:16:56.964Z,1.50
2022-12-18T06:19:23.885Z,1.40
2022-12-18T06:21:51.766Z,1.40
2022-12-18T06:24:18.660Z,1.30
2022-12-18T06:26:45.604Z,1.70
2022-12-18T06:29:12.595Z,1.70
2022-12-18T06:31:39.851Z,1.60
2022-12-18T06:34:06.805Z,1.60
2022-12-18T06:36:33.849Z,1.70
2022-12-18T06:39:00.907Z,1.50
2022-12-18T06:41:27.911Z,1.50
2022-12-18T06:43:59.586Z,1.60
2022-12-18T06:46:27.024Z,1.70
2022-12-18T06:48:54.001Z,1.60
2022-12-18T06:51:21.878Z,1.60
2022-12-18T06:53:48.980Z,1.60
2022-12-18T06:56:15.893Z,1.60
2022-12-18T06:58:42.869Z,1.50
2022-12-18T07:01:11.485Z,1.70
2022-12-18T07:03:40.162Z,1.70
2022-12-18T07:06:07.675Z,1.60
2022-12-18T07:08:34.740Z,1.70
2022-12-18T07:11:04.840Z,1.70
2022-12-18T07:13:32.240Z,1.90
2022-12-18T07:16:20.941Z,1.80
2022-12-18T07:18:51.312Z,1.90
2022-12-18T07:21:19.368Z,2.10
2022-12-18T07:23:49.242Z,2.00
2022-12-18T07:26:17.990Z,1.90
2022-12-18T07:28:44.982Z,2.10
2022-12-18T07:31:13.627Z,1.80
2022-12-18T07:33:41.119Z,1.80
2022-12-18T07:36:08.924Z,2.10
2022-12-18T07:38:36.073Z,2.20
2022-12-18T07:41:03.951Z,2.00
2022-12-18T07:43:34.181Z,1.80
2022-12-18T07:46:01.084Z,2.20
2022-12-18T07:48:29.155Z,2.00
2022-12-18T07:51:02.879Z,2.00
2022-12-18T07:53:29.864Z,2.10
2022-12-18T07:56:26.071Z,2.30
2022-12-18T07:58:48.246Z,2.00
2022-12-18T08:01:15.904Z,2.10
2022-12-18T08:03:43.284Z,2.00
2022-12-18T08:06:10.592Z,2.10
2022-12-18T08:08:37.966Z,2.30
2022-12-18T08:11:05.086Z,2.20
2022-12-18T08:13:31.984Z,2.10
2022-12-18T08:16:00.046Z,2.20
2022-12-18T08:18:27.260Z,2.10
2022-12-18T08:20:54.219Z,2.20
2022-12-18T08:23:21.282Z,2.30
2022-12-18T08:25:48.433Z,2.10
2022-12-18T08:28:15.494Z,2.00
2022-12-18T08:30:43.542Z,2.20
2022-12-18T08:33:10.647Z,2.20
2022-12-18T08:35:42.521Z,2.20
2022-12-18T08:38:12.449Z,2.20
2022-12-18T08:40:39.538Z,2.20
2022-12-18T08:43:24.809Z,2.40
2022-12-18T08:45:51.872Z,2.20
2022-12-18T08:48:25.180Z,2.40
2022-12-18T08:50:58.528Z,2.50
2022-12-18T08:53:25.584Z,2.20
2022-12-18T08:55:52.625Z,2.70
2022-12-18T08:58:19.770Z,2.30
2022-12-18T09:00:46.733Z,2.50
2022-12-18T09:03:15.101Z,2.70
2022-12-18T09:05:42.262Z,1.90
2022-12-18T09:08:09.293Z,2.70
2022-12-18T09:10:43.485Z,2.50
2022-12-18T09:13:11.787Z,2.60
2022-12-18T09:15:43.831Z,2.50
2022-12-18T09:18:10.950Z,2.50
2022-12-18T09:20:38.426Z,2.60
2022-12-18T09:23:05.741Z,2.40
2022-12-18T09:25:34.147Z,2.80
2022-12-18T09:28:01.553Z,2.50
2022-12-18T09:30:28.556Z,2.70
2022-12-18T09:32:55.752Z,2.70
2022-12-18T09:35:22.636Z,2.70
2022-12-18T09:37:49.634Z,2.80
2022-12-18T09:40:19.203Z,2.80
2022-12-18T09:42:48.133Z,2.90
2022-12-18T09:45:15.673Z,2.60
2022-12-18T09:47:42.689Z,2.70
2022-12-18T09:50:25.555Z,2.70
2022-12-18T09:52:54.642Z,3.00
2022-12-18T09:55:21.581Z,3.00
2022-12-18T09:57:54.623Z,2.90
2022-12-18T10:00:22.989Z,3.00
2022-12-18T10:02:52.065Z,3.00
2022-12-18T10:05:44.787Z,3.00
2022-12-18T10:08:20.271Z,3.00
2022-12-18T10:10:53.251Z,3.30
2022-12-18T10:13:36.370Z,3.20
2022-12-18T10:16:25.029Z,3.00
2022-12-18T10:19:10.175Z,2.90
2022-12-18T10:21:46.080Z,3.20
2022-12-18T10:24:23.233Z,3.20
2022-12-18T10:26:50.109Z,3.10
2022-12-18T10:29:17.484Z,3.20
2022-12-18T10:31:44.521Z,3.20
2022-12-18T10:34:12.415Z,3.40
2022-12-18T10:36:39.505Z,3.40
2022-12-18T10:39:20.908Z,2.80
2022-12-18T10:41:47.970Z,3.20
2022-12-18T10:44:24.679Z,3.50
2022-12-18T10:46:54.407Z,3.40
2022-12-18T10:49:30.372Z,3.60
2022-12-18T10:52:29.793Z,3.50
2022-12-18T10:54:59.864Z,3.40
2022-12-18T10:57:39.704Z,3.50
2022-12-18T11:00:26.204Z,3.50
2022-12-18T11:02:53.650Z,3.60
2022-12-18T11:05:27.725Z,3.70
2022-12-18T11:07:55.490Z,3.60
2022-12-18T11:10:24.894Z,3.70
2022-12-18T11:12:51.832Z,3.80
2022-12-18T11:15:25.662Z,3.50
2022-12-18T11:17:55.891Z,3.60
2022-12-18T11:20:33.571Z,3.50
2022-12-18T11:23:05.116Z,3.50
2022-12-18T11:25:34.512Z,3.60
2022-12-18T11:28:04.302Z,3.60
2022-12-18T11:30:32.812Z,3.50
2022-12-18T11:33:14.410Z,3.90
2022-12-18T11:35:46.674Z,3.80
2022-12-18T11:38:26.572Z,3.70
2022-12-18T11:41:16.301Z,3.70
2022-12-18T11:44:02.646Z,3.90
2022-12-18T11:46:46.470Z,3.80
2022-12-18T11:49:23.944Z,3.90
2022-12-18T11:51:54.751Z,3.90
2022-12-18T11:54:21.699Z,3.60
2022-12-18T11:57:04.510Z,3.70
2022-12-18T11:59:38.028Z,3.50
2022-12-18T12:02:13.061Z,3.60
2022-12-18T12:05:05.151Z,3.60
2022-12-18T12:07:41.569Z,3.50
2022-12-18T12:10:53.862Z,3.50
2022-12-18T12:13:33.470Z,3.70
2022-12-18T12:16:09.339Z,3.60
2022-12-18T12:18:54.222Z,3.60
2022-12-18T12:21:30.224Z,3.60
2022-12-18T12:24:18.322Z,3.60
2022-12-18T12:27:06.720Z,3.70
2022-12-18T12:29:43.304Z,3.40
2022-12-18T12:32:32.819Z,3.60
2022-12-18T12:35:09.702Z,3.50
2022-12-18T12:37:56.466Z,3.60
2022-12-18T12:43:28.606Z,3.30
2022-12-18T12:46:06.115Z,3.50
2022-12-18T12:48:47.459Z,3.50
2022-12-18T12:51:37.355Z,3.70
2022-12-18T12:54:06.928Z,3.40
2022-12-18T12:56:56.970Z,3.50
2022-12-18T12:59:26.266Z,3.40
2022-12-18T13:02:02.159Z,3.60
2022-12-18T13:04:41.201Z,3.70
2022-12-18T13:07:29.019Z,3.70
2022-12-18T13:10:23.731Z,3.10
2022-12-18T13:13:30.737Z,3.60
2022-12-18T13:16:07.910Z,3.50
2022-12-18T13:18:35.157Z,3.50
2022-12-18T13:21:04.112Z,3.60
2022-12-18T13:23:38.118Z,3.50
2022-12-18T13:26:11.436Z,3.50
2022-12-18T13:28:48.205Z,3.40
2022-12-18T13:31:16.287Z,3.40
2022-12-18T13:34:24.706Z,3.50
2022-12-18T13:36:34.621Z,3.70
2022-12-18T13:39:28.942Z,3.20
2022-12-18T13:42:07.270Z,3.70
2022-12-18T13:44:40.336Z,3.40
2022-12-18T13:47:29.849Z,3.70
2022-12-18T13:49:56.859Z,3.60
2022-12-18T13:52:29.757Z,3.50
2022-12-18T13:55:00.445Z,3.50
2022-12-18T13:57:34.505Z,3.40
2022-12-18T14:00:23.326Z,3.50
2022-12-18T14:02:51.564Z,3.60
2022-12-18T14:05:52.923Z,3.20
2022-12-18T14:08:20.839Z,3.60
2022-12-18T14:10:49.973Z,3.50
2022-12-18T14:13:35.209Z,3.70
2022-12-18T14:16:04.086Z,3.90
2022-12-18T14:18:37.264Z,3.70
2022-12-18T14:21:04.575Z,3.60
2022-12-18T14:23:43.215Z,3.80
2022-12-18T14:26:26.410Z,3.60
2022-12-18T14:28:54.900Z,3.60
2022-12-18T14:31:24.094Z,3.60
2022-12-18T14:33:51.512Z,3.90
2022-12-18T14:36:23.580Z,3.70
2022-12-18T14:38:51.405Z,3.80
2022-12-18T14:41:19.320Z,4.00
2022-12-18T14:43:48.994Z,3.80
2022-12-18T14:46:38.859Z,4.00
2022-12-18T14:49:26.655Z,3.80
2022-12-18T14:51:55.635Z,4.00
2022-12-18T14:54:23.235Z,3.90
2022-12-18T14:56:57.712Z,3.80
2022-12-18T14:59:25.693Z,3.80
2022-12-18T15:02:06.344Z,3.90
2022-12-18T15:04:35.658Z,3.90
2022-12-18T15:07:11.632Z,4.00
2022-12-18T15:09:39.651Z,4.10
2022-12-18T15:12:07.087Z,4.20
2022-12-18T15:14:41.803Z,4.00
2022-12-18T15:17:38.304Z,4.10
2022-12-18T15:20:10.835Z,4.20
2022-12-18T15:22:38.646Z,4.30
2022-12-18T15:25:25.589Z,4.30
2022-12-18T15:27:52.592Z,4.20
2022-12-18T15:30:21.711Z,4.20
2022-12-18T15:32:49.932Z,4.50
2022-12-18T15:35:24.294Z,4.40
2022-12-18T15:37:52.743Z,4.40
2022-12-18T15:40:24.153Z,4.40
2022-12-18T15:43:12.372Z,4.60
2022-12-18T15:45:39.423Z,4.50
2022-12-18T15:48:21.991Z,4.70
2022-12-18T15:50:50.095Z,4.70
2022-12-18T15:53:17.077Z,4.90
2022-12-18T15:56:02.529Z,4.70
2022-12-18T15:58:30.002Z,4.80
2022-12-18T16:00:57.155Z,4.70
2022-12-18T16:03:24.285Z,4.70
2022-12-18T16:05:52.074Z,4.90
2022-12-18T16:08:19.096Z,5.00
2022-12-18T16:10:46.158Z,5.10
2022-12-18T16:13:13.811Z,5.20
2022-12-18T16:15:40.800Z,5.30
2022-12-18T16:18:08.003Z,5.40
2022-12-18T16:20:34.971Z,5.30
2022-12-18T16:23:02.321Z,5.50
2022-12-18T16:25:29.623Z,5.50
2022-12-18T16:27:57.059Z,5.70
2022-12-18T16:30:28.273Z,5.60
2022-12-18T16:32:56.597Z,5.50
2022-12-18T16:35:23.649Z,5.50
2022-12-18T16:37:50.664Z,5.70
2022-12-18T16:40:18.212Z,5.80
2022-12-18T16:42:46.058Z,5.90
2022-12-18T16:45:15.274Z,5.80
2022-12-18T16:47:42.544Z,5.80
2022-12-18T16:50:10.023Z,5.90
2022-12-18T16:52:37.124Z,6.20
2022-12-18T16:55:04.419Z,5.90
2022-12-18T16:57:31.438Z,6.10
2022-12-18T17:00:04.748Z,6.10
2022-12-18T17:02:33.048Z,6.10
2022-12-18T17:05:00.475Z,6.10
2022-12-18T17:07:28.396Z,6.00
2022-12-18T17:09:55.711Z,6.20
2022-12-18T17:12:22.974Z,6.20
2022-12-18T17:14:50.207Z,6.20
2022-12-18T17:17:22.841Z,6.20
2022-12-18T17:19:50.730Z,6.50
2022-12-18T17:22:17.712Z,6.60
2022-12-18T17:24:44.713Z,6.40
2022-12-18T17:27:11.737Z,6.50
2022-12-18T17:29:43.909Z,6.70
2022-12-18T17:32:14.390Z,6.50
2022-12-18T17:34:41.435Z,6.60
2022-12-18T17:37:09.099Z,6.70
2022-12-18T17:39:36.173Z,6.50
2022-12-18T17:42:03.266Z,6.40
2022-12-18T17:44:30.249Z,6.70
2022-12-18T17:46:57.551Z,6.60
2022-12-18T17:49:24.775Z,6.80
2022-12-18T17:51:51.825Z,6.70
2022-12-18T17:54:18.882Z,6.90
2022-12-18T17:56:45.795Z,6.70
2022-12-18T17:59:13.341Z,6.70
2022-12-18T18:01:44.361Z,6.70
2022-12-18T18:04:12.441Z,6.90
2022-12-18T18:06:39.603Z,6.70
2022-12-18T18:09:10.315Z,7.00
2022-12-18T18:12:03.694Z,7.10
2022-12-18T18:14:31.057Z,6.80
2022-12-18T18:16:59.200Z,7.00
2022-12-18T18:19:31.740Z,7.10
2022-12-18T18:21:58.692Z,6.90
2022-12-18T18:24:26.019Z,7.00
2022-12-18T18:26:58.102Z,7.00
2022-12-18T18:29:28.987Z,7.00
2022-12-18T18:32:02.404Z,7.00
2022-12-18T18:34:33.984Z,7.00
2022-12-18T18:37:08.686Z,7.00
2022-12-18T18:40:05.288Z,7.00
2022-12-18T18:42:35.781Z,7.20
2022-12-18T18:45:06.316Z,7.00
2022-12-18T18:47:33.543Z,7.00
2022-12-18T18:50:14.214Z,7.10
2022-12-18T18:52:41.492Z,7.20
2022-12-18T18:55:25.744Z,7.10
2022-12-18T18:58:22.697Z,7.30
2022-12-18T19:01:01.487Z,7.10
2022-12-18T19:03:28.978Z,7.10
2022-12-18T19:05:59.403Z,7.10
2022-12-18T19:08:28.712Z,7.20
2022-12-18T19:11:13.885Z,7.20
2022-12-18T19:13:43.913Z,7.30
2022-12-18T19:16:12.175Z,7.30
2022-12-18T19:18:47.229Z,7.20
2022-12-18T19:21:14.757Z,7.30
2022-12-18T19:23:41.904Z,7.30
2022-12-18T19:26:27.306Z,7.40
2022-12-18T19:28:55.168Z,7.00
2022-12-18T19:31:26.186Z,7.40
2022-12-18T19:33:55.102Z,7.60
2022-12-18T19:36:25.266Z,7.70
2022-12-18T19:38:53.578Z,7.40
2022-12-18T19:41:20.945Z,7.70
2022-12-18T19:43:48.704Z,7.60
2022-12-18T19:46:17.335Z,7.40
2022-12-18T19:48:45.163Z,7.60
2022-12-18T19:51:18.156Z,7.60
2022-12-18T19:53:45.453Z,7.60
2022-12-18T19:56:15.570Z,7.70
2022-12-18T19:58:43.260Z,7.60
2022-12-18T20:01:10.565Z,7.50
2022-12-18T20:03:40.426Z,7.80
2022-12-18T20:06:15.481Z,7.70
2022-12-18T20:08:42.435Z,7.90
2022-12-18T20:11:09.407Z,7.70
2022-12-18T20:13:36.443Z,7.80
2022-12-18T20:16:03.640Z,7.80
2022-12-18T20:18:30.617Z,8.10
2022-12-18T20:20:58.449Z,7.90
2022-12-18T20:23:27.503Z,8.00
2022-12-18T20:25:55.509Z,7.90
2022-12-18T20:28:22.979Z,8.10
2022-12-18T20:30:49.927Z,8.10
2022-12-18T20:33:17.172Z,8.30
2022-12-18T20:35:44.171Z,8.20
2022-12-18T20:38:11.974Z,8.10
2022-12-18T20:40:41.601Z,8.30
2022-12-18T20:43:12.470Z,8.30
2022-12-18T20:45:43.901Z,8.40
2022-12-18T20:48:12.971Z,8.50
2022-12-18T20:50:39.975Z,8.50
2022-12-18T20:53:06.920Z,8.50
2022-12-18T20:55:34.074Z,8.70
2022-12-18T20:58:01.196Z,8.50
2022-12-18T21:00:28.423Z,8.60
2022-12-18T21:02:55.426Z,8.60
2022-12-18T21:05:22.404Z,8.70
2022-12-18T21:07:49.467Z,8.70
2022-12-18T21:10:16.500Z,8.60
2022-12-18T21:12:56.148Z,9.00
2022-12-18T21:15:28.909Z,8.90
2022-12-18T21:17:56.287Z,8.90
2022-12-18T21:20:23.374Z,8.80
2022-12-18T21:22:50.373Z,8.80
2022-12-18T21:25:17.420Z,8.80
2022-12-18T21:27:44.494Z,8.90
2022-12-18T21:30:11.749Z,8.90
2022-12-18T21:32:38.677Z,8.90
2022-12-18T21:35:06.173Z,8.90
2022-12-18T21:37:33.218Z,8.90
2022-12-18T21:40:00.258Z,8.90
2022-12-18T21:42:45.708Z,9.00
2022-12-18T21:45:12.604Z,9.00
2022-12-18T21:47:39.800Z,9.10
2022-12-18T21:50:06.954Z,9.30
2022-12-18T21:52:33.930Z,9.10
2022-12-18T21:55:08.560Z,9.10
2022-12-18T21:57:37.122Z,9.30
2022-12-18T22:00:05.395Z,9.20
2022-12-18T22:02:39.284Z,9.10
2022-12-18T22:05:06.896Z,9.20
2022-12-18T22:07:34.270Z,9.20
2022-12-18T22:10:02.030Z,9.30
2022-12-18T22:12:38.548Z,8.80
2022-12-18T22:15:21.081Z,9.20
2022-12-18T22:17:50.508Z,9.20
2022-12-18T22:20:18.433Z,9.30
2022-12-18T22:22:49.685Z,9.10
2022-12-18T22:25:16.633Z,9.40
2022-12-18T22:28:04.082Z,9.30
2022-12-18T22:30:31.018Z,9.40
2022-12-18T22:32:58.307Z,9.40
2022-12-18T22:35:25.326Z,9.70
2022-12-18T22:37:52.321Z,9.70
2022-12-18T22:40:24.084Z,9.50
2022-12-18T22:42:53.118Z,9.60
2022-12-18T22:45:20.519Z,9.60
2022-12-18T22:47:48.719Z,9.70
2022-12-18T22:50:15.675Z,9.60
2022-12-18T22:52:42.619Z,9.70
2022-12-18T22:55:09.862Z,9.70
2022-12-18T22:57:36.900Z,9.80
2022-12-18T23:00:07.325Z,9.80
2022-12-18T23:02:34.666Z,9.80
2022-12-18T23:05:01.714Z,9.90
2022-12-18T23:07:28.602Z,9.60
2022-12-18T23:09:58.416Z,9.90
2022-12-18T23:12:28.257Z,10.00
2022-12-18T23:14:55.424Z,10.00
2022-12-18T23:17:22.444Z,10.00
2022-12-18T23:19:49.595Z,10.00
2022-12-18T23:22:17.342Z,10.10
2022-12-18T23:24:44.407Z,10.30
2022-12-18T23:27:11.793Z,10.10
2022-12-18T23:29:39.634Z,10.30
2022-12-18T23:32:06.809Z,10.40
2022-12-18T23:34:33.727Z,10.20
2022-12-18T23:37:03.974Z,10.30
2022-12-18T23:39:31.084Z,10.30
2022-12-18T23:41:58.764Z,10.30
2022-12-18T23:44:25.984Z,10.40
2022-12-18T23:46:53.029Z,10.40
2022-12-18T23:49:20.079Z,10.40
2022-12-18T23:51:47.003Z,10.50
2022-12-18T23:54:13.936Z,10.50
2022-12-18T23:56:40.839Z,10.60
2022-12-18T23:59:07.791Z,10.80
